createdAt,value
2018-07-20T00:00:00.066Z,929.39
2018-07-20T00:01:31.430Z,929.39
2018-07-20T00:03:03.002Z,929.41
2018-07-20T00:04:34.576Z,929.41
2018-07-20T00:06:06.147Z,929.42
2018-07-20T00:07:37.720Z,929.43
2018-07-20T00:09:09.294Z,929.39
2018-07-20T00:10:40.868Z,929.44
2018-07-20T00:12:12.442Z,929.40
2018-07-20T00:13:44.013Z,929.39
2018-07-20T00:15:15.586Z,929.45
2018-07-20T00:16:47.204Z,929.42
2018-07-20T00:18:18.831Z,929.44
2018-07-20T00:19:50.303Z,929.42
2018-07-20T00:21:21.876Z,929.43
2018-07-20T00:22:53.449Z,929.44
2018-07-20T00:24:25.022Z,929.44
2018-07-20T00:25:56.595Z,929.41
2018-07-20T00:27:28.167Z,929.43
2018-07-20T00:28:59.740Z,929.44
2018-07-20T00:30:31.312Z,929.46
2018-07-20T00:32:02.883Z,929.44
2018-07-20T00:33:34.497Z,929.44
2018-07-20T00:35:06.038Z,929.44
2018-07-20T00:36:37.701Z,929.43
2018-07-20T00:38:09.173Z,929.45
2018-07-20T00:39:40.745Z,929.42
2018-07-20T00:41:12.330Z,929.42
2018-07-20T00:42:43.890Z,929.43
2018-07-20T00:44:15.461Z,929.42
2018-07-20T00:45:47.034Z,929.42
2018-07-20T00:47:18.604Z,929.39
2018-07-20T00:48:50.184Z,929.42
2018-07-20T00:50:21.765Z,929.39
2018-07-20T00:51:53.321Z,929.40
2018-07-20T00:53:24.893Z,929.40
2018-07-20T00:54:57.023Z,929.41
2018-07-20T00:56:28.037Z,929.44
2018-07-20T00:57:59.609Z,929.45
2018-07-20T00:59:31.180Z,929.49
2018-07-20T01:01:02.853Z,929.49
2018-07-20T01:02:34.324Z,929.46
2018-07-20T01:04:05.896Z,929.50
2018-07-20T01:05:37.467Z,929.51
2018-07-20T01:07:09.054Z,929.54
2018-07-20T01:08:40.611Z,929.50
2018-07-20T01:10:12.183Z,929.50
2018-07-20T01:11:43.755Z,929.48
2018-07-20T01:13:15.430Z,929.46
2018-07-20T01:14:46.897Z,929.46
2018-07-20T01:16:18.469Z,929.49
2018-07-20T01:17:50.048Z,929.47
2018-07-20T01:19:21.687Z,929.48
2018-07-20T01:20:53.184Z,929.47
2018-07-20T01:22:24.755Z,929.39
2018-07-20T01:23:56.327Z,929.44
2018-07-20T01:25:27.899Z,929.40
2018-07-20T01:26:59.470Z,929.37
2018-07-20T01:28:31.062Z,929.37
2018-07-20T01:30:02.614Z,929.34
2018-07-20T01:31:34.385Z,929.38
2018-07-20T01:33:05.757Z,929.34
2018-07-20T01:34:37.328Z,929.34
2018-07-20T01:36:08.900Z,929.32
2018-07-20T01:37:40.472Z,929.29
2018-07-20T01:39:12.044Z,929.30
2018-07-20T01:40:43.633Z,929.26
2018-07-20T01:42:15.189Z,929.28
2018-07-20T01:43:46.763Z,929.30
2018-07-20T01:45:18.331Z,929.30
2018-07-20T01:46:49.903Z,929.26
2018-07-20T01:48:21.483Z,929.31
2018-07-20T01:49:53.197Z,929.33
2018-07-20T01:51:24.620Z,929.38
2018-07-20T01:52:56.191Z,929.36
2018-07-20T01:55:59.337Z,929.44
2018-07-20T01:57:30.907Z,929.41
2018-07-20T01:59:02.479Z,929.40
2018-07-20T02:00:34.055Z,929.40
2018-07-20T02:02:05.724Z,929.44
2018-07-20T02:03:37.202Z,929.42
2018-07-20T02:05:08.768Z,929.41
2018-07-20T02:06:40.345Z,929.39
2018-07-20T02:08:12.011Z,929.36
2018-07-20T02:09:43.507Z,929.36
2018-07-20T02:11:15.054Z,929.32
2018-07-20T02:12:46.628Z,929.36
2018-07-20T02:14:18.198Z,929.31
2018-07-20T02:15:49.770Z,929.33
2018-07-20T02:17:21.342Z,929.30
2018-07-20T02:18:52.914Z,929.30
2018-07-20T02:20:24.486Z,929.28
2018-07-20T02:21:56.063Z,929.28
2018-07-20T02:23:27.633Z,929.23
2018-07-20T02:24:59.552Z,929.26
2018-07-20T02:26:30.874Z,929.29
2018-07-20T02:28:02.346Z,929.31
2018-07-20T02:29:34.092Z,929.30
2018-07-20T02:31:05.491Z,929.26
2018-07-20T02:32:37.162Z,929.30
2018-07-20T02:34:08.687Z,929.23
2018-07-20T02:35:40.205Z,929.24
2018-07-20T02:37:11.779Z,929.24
2018-07-20T02:38:43.367Z,929.25
2018-07-20T02:40:14.923Z,929.28
2018-07-20T02:41:46.494Z,929.25
2018-07-20T02:43:18.066Z,929.30
2018-07-20T02:44:49.987Z,929.30
2018-07-20T02:46:21.211Z,929.30
2018-07-20T02:47:52.781Z,929.34
2018-07-20T02:49:24.352Z,929.33
2018-07-20T02:50:55.924Z,929.38
2018-07-20T02:52:27.496Z,929.38
2018-07-20T02:53:59.067Z,929.37
2018-07-20T02:55:30.643Z,929.37
2018-07-20T02:57:02.211Z,929.35
2018-07-20T02:58:34.973Z,929.32
2018-07-20T03:00:05.407Z,929.30
2018-07-20T03:01:37.043Z,929.28
2018-07-20T03:03:08.749Z,929.28
2018-07-20T03:04:40.214Z,929.28
2018-07-20T03:06:11.642Z,929.28
2018-07-20T03:07:43.226Z,929.33
2018-07-20T03:09:14.794Z,929.31
2018-07-20T03:10:46.395Z,929.31
2018-07-20T03:12:17.931Z,929.31
2018-07-20T03:13:49.502Z,929.30
2018-07-20T03:15:21.324Z,929.29
2018-07-20T03:16:52.648Z,929.27
2018-07-20T03:18:24.217Z,929.25
2018-07-20T03:19:55.788Z,929.22
2018-07-20T03:21:27.461Z,929.26
2018-07-20T03:22:58.930Z,929.25
2018-07-20T03:24:30.501Z,929.27
2018-07-20T03:26:02.076Z,929.27
2018-07-20T03:27:33.644Z,929.26
2018-07-20T03:29:05.215Z,929.31
2018-07-20T03:30:36.787Z,929.29
2018-07-20T03:32:08.360Z,929.25
2018-07-20T03:33:40.030Z,929.26
2018-07-20T03:35:11.500Z,929.21
2018-07-20T03:36:43.071Z,929.18
2018-07-20T03:38:14.642Z,929.20
2018-07-20T03:39:46.363Z,929.18
2018-07-20T03:41:17.783Z,929.17
2018-07-20T03:42:49.354Z,929.19
2018-07-20T03:44:20.935Z,929.18
2018-07-20T03:45:52.746Z,929.21
2018-07-20T03:47:24.067Z,929.19
2018-07-20T03:48:55.694Z,929.19
2018-07-20T03:50:27.209Z,929.18
2018-07-20T03:51:58.779Z,929.14
2018-07-20T03:53:30.352Z,929.13
2018-07-20T03:55:01.920Z,929.08
2018-07-20T03:58:05.161Z,929.04
2018-07-20T03:59:36.631Z,929.06
2018-07-20T04:01:08.205Z,929.03
2018-07-20T04:02:39.772Z,928.99
2018-07-20T04:04:11.445Z,928.97
2018-07-20T04:05:42.914Z,928.98
2018-07-20T04:07:14.484Z,928.90
2018-07-20T04:08:46.055Z,928.95
2018-07-20T04:10:17.667Z,928.91
2018-07-20T04:11:49.196Z,928.90
2018-07-20T04:13:20.765Z,928.91
2018-07-20T04:14:52.336Z,928.90
2018-07-20T04:16:24.007Z,928.85
2018-07-20T04:17:55.477Z,928.85
2018-07-20T04:19:27.075Z,928.86
2018-07-20T04:20:58.617Z,928.83
2018-07-20T04:22:30.188Z,928.81
2018-07-20T04:24:01.758Z,928.85
2018-07-20T04:25:33.328Z,928.82
2018-07-20T04:27:04.899Z,928.83
2018-07-20T04:28:36.468Z,928.80
2018-07-20T04:30:08.039Z,928.83
2018-07-20T04:31:39.618Z,928.81
2018-07-20T04:33:11.179Z,928.83
2018-07-20T04:34:42.851Z,928.76
2018-07-20T04:36:14.321Z,928.76
2018-07-20T04:37:45.890Z,928.79
2018-07-20T04:39:17.467Z,928.76
2018-07-20T04:40:49.031Z,928.75
2018-07-20T04:42:20.601Z,928.79
2018-07-20T04:43:52.190Z,928.71
2018-07-20T04:46:55.313Z,928.78
2018-07-20T04:48:26.883Z,928.74
2018-07-20T04:49:58.483Z,928.74
2018-07-20T04:51:30.023Z,928.72
2018-07-20T04:53:01.693Z,928.73
2018-07-20T04:54:33.163Z,928.76
2018-07-20T04:56:04.733Z,928.70
2018-07-20T04:57:36.303Z,928.66
2018-07-20T04:59:07.873Z,928.72
2018-07-20T05:00:39.443Z,928.70
2018-07-20T05:02:11.013Z,928.68
2018-07-20T05:03:42.651Z,928.70
2018-07-20T05:05:14.257Z,928.69
2018-07-20T05:06:45.726Z,928.66
2018-07-20T05:08:17.294Z,928.63
2018-07-20T05:09:48.864Z,928.66
2018-07-20T05:11:20.555Z,928.63
2018-07-20T05:12:52.004Z,928.56
2018-07-20T05:14:23.574Z,928.57
2018-07-20T05:15:55.144Z,928.55
2018-07-20T05:17:26.714Z,928.53
2018-07-20T05:18:58.285Z,928.56
2018-07-20T05:20:29.855Z,928.54
2018-07-20T05:22:01.424Z,928.50
2018-07-20T05:23:32.995Z,928.51
2018-07-20T05:25:04.566Z,928.52
2018-07-20T05:26:36.134Z,928.45
2018-07-20T05:28:07.707Z,928.43
2018-07-20T05:29:39.380Z,928.42
2018-07-20T05:31:10.852Z,928.45
2018-07-20T05:32:42.559Z,928.39
2018-07-20T05:34:13.986Z,928.37
2018-07-20T05:35:45.655Z,928.35
2018-07-20T05:37:17.124Z,928.35
2018-07-20T05:38:48.696Z,928.35
2018-07-20T05:40:20.265Z,928.36
2018-07-20T05:41:51.836Z,928.39
2018-07-20T05:43:23.406Z,928.36
2018-07-20T05:44:54.976Z,928.36
2018-07-20T05:46:26.547Z,928.37
2018-07-20T05:47:58.217Z,928.35
2018-07-20T05:49:29.690Z,928.37
2018-07-20T05:51:01.262Z,928.32
2018-07-20T05:52:32.828Z,928.36
2018-07-20T05:54:04.399Z,928.35
2018-07-20T05:55:35.969Z,928.43
2018-07-20T05:57:07.539Z,928.41
2018-07-20T05:58:39.109Z,928.45
2018-07-20T06:00:10.681Z,928.47
2018-07-20T06:01:42.251Z,928.49
2018-07-20T06:03:13.821Z,928.48
2018-07-20T06:04:45.391Z,928.52
2018-07-20T06:06:17.062Z,928.50
2018-07-20T06:07:48.532Z,928.47
2018-07-20T06:09:20.104Z,928.48
2018-07-20T06:10:51.674Z,928.44
2018-07-20T06:12:23.244Z,928.45
2018-07-20T06:13:54.814Z,928.44
2018-07-20T06:15:26.384Z,928.37
2018-07-20T06:16:57.954Z,928.38
2018-07-20T06:18:29.775Z,928.42
2018-07-20T06:20:01.095Z,928.42
2018-07-20T06:21:32.668Z,928.46
2018-07-20T06:23:04.237Z,928.44
2018-07-20T06:24:35.911Z,928.43
2018-07-20T06:26:07.375Z,928.44
2018-07-20T06:27:38.945Z,928.46
2018-07-20T06:29:10.516Z,928.43
2018-07-20T06:30:42.085Z,928.42
2018-07-20T06:32:13.654Z,928.40
2018-07-20T06:33:45.225Z,928.36
2018-07-20T06:35:16.796Z,928.37
2018-07-20T06:36:48.469Z,928.37
2018-07-20T06:38:19.934Z,928.36
2018-07-20T06:39:51.504Z,928.30
2018-07-20T06:41:23.074Z,928.24
2018-07-20T06:42:54.744Z,928.29
2018-07-20T06:44:26.216Z,928.24
2018-07-20T06:45:57.783Z,928.26
2018-07-20T06:47:29.357Z,928.27
2018-07-20T06:49:01.175Z,928.26
2018-07-20T06:50:32.497Z,928.23
2018-07-20T06:52:04.065Z,928.19
2018-07-20T06:53:35.636Z,928.16
2018-07-20T06:55:07.208Z,928.15
2018-07-20T06:56:38.775Z,928.17
2018-07-20T06:58:10.345Z,928.18
2018-07-20T06:59:41.915Z,928.14
2018-07-20T07:01:13.586Z,928.14
2018-07-20T07:02:45.055Z,928.18
2018-07-20T07:04:16.627Z,928.14
2018-07-20T07:05:48.198Z,928.12
2018-07-20T07:07:19.766Z,928.09
2018-07-20T07:08:51.337Z,928.10
2018-07-20T07:10:22.907Z,928.10
2018-07-20T07:11:54.512Z,928.10
2018-07-20T07:13:26.047Z,928.13
2018-07-20T07:14:57.688Z,928.11
2018-07-20T07:16:29.188Z,928.13
2018-07-20T07:18:00.759Z,928.17
2018-07-20T07:19:32.429Z,928.14
2018-07-20T07:21:03.899Z,928.13
2018-07-20T07:22:35.470Z,928.13
2018-07-20T07:24:07.040Z,928.15
2018-07-20T07:25:38.610Z,928.08
2018-07-20T07:27:10.180Z,928.08
2018-07-20T07:28:41.752Z,928.10
2018-07-20T07:30:13.321Z,928.07
2018-07-20T07:31:44.892Z,928.09
2018-07-20T07:33:16.462Z,928.08
2018-07-20T07:34:48.035Z,928.07
2018-07-20T07:36:19.603Z,928.08
2018-07-20T07:37:51.374Z,928.14
2018-07-20T07:39:22.744Z,928.10
2018-07-20T07:40:54.314Z,928.07
2018-07-20T07:42:25.886Z,928.09
2018-07-20T07:43:57.556Z,928.09
2018-07-20T07:45:29.026Z,928.06
2018-07-20T07:47:00.596Z,928.09
2018-07-20T07:48:32.169Z,928.06
2018-07-20T07:50:03.738Z,928.08
2018-07-20T07:51:35.307Z,928.07
2018-07-20T07:53:06.880Z,928.09
2018-07-20T07:54:38.449Z,928.10
2018-07-20T07:56:10.120Z,928.03
2018-07-20T07:57:41.590Z,928.08
2018-07-20T07:59:13.160Z,928.10
2018-07-20T08:00:44.730Z,928.07
2018-07-20T08:02:16.301Z,928.11
2018-07-20T08:03:47.872Z,928.10
2018-07-20T08:05:19.443Z,928.05
2018-07-20T08:06:51.040Z,928.01
2018-07-20T08:08:22.683Z,928.03
2018-07-20T08:09:54.190Z,928.02
2018-07-20T08:11:25.725Z,928.00
2018-07-20T08:12:57.297Z,927.98
2018-07-20T08:14:28.964Z,928.01
2018-07-20T08:16:00.449Z,927.96
2018-07-20T08:17:32.006Z,927.92
2018-07-20T08:19:03.618Z,927.93
2018-07-20T08:20:35.411Z,927.90
2018-07-20T08:22:06.721Z,927.96
2018-07-20T08:23:38.286Z,927.93
2018-07-20T08:25:09.856Z,927.93
2018-07-20T08:26:41.456Z,927.95
2018-07-20T08:28:12.998Z,927.92
2018-07-20T08:29:44.572Z,927.94
2018-07-20T08:31:16.139Z,927.94
2018-07-20T08:32:47.863Z,927.96
2018-07-20T08:34:19.279Z,927.92
2018-07-20T08:35:50.851Z,927.96
2018-07-20T08:37:22.420Z,927.95
2018-07-20T08:38:54.091Z,927.98
2018-07-20T08:40:25.579Z,927.95
2018-07-20T08:41:57.136Z,927.92
2018-07-20T08:43:28.702Z,927.95
2018-07-20T08:45:00.275Z,927.92
2018-07-20T08:46:31.890Z,927.87
2018-07-20T08:48:03.414Z,927.87
2018-07-20T08:49:34.983Z,927.92
2018-07-20T08:51:06.905Z,927.86
2018-07-20T08:52:38.124Z,927.86
2018-07-20T08:54:09.722Z,927.87
2018-07-20T08:55:41.265Z,927.86
2018-07-20T08:57:12.836Z,927.85
2018-07-20T08:58:44.406Z,927.82
2018-07-20T09:00:15.978Z,927.84
2018-07-20T09:01:47.548Z,927.78
2018-07-20T09:03:19.118Z,927.77
2018-07-20T09:04:50.688Z,927.82
2018-07-20T09:06:22.258Z,927.86
2018-07-20T09:07:53.828Z,927.85
2018-07-20T09:09:25.649Z,927.82
2018-07-20T09:10:56.972Z,927.87
2018-07-20T09:12:28.540Z,927.82
2018-07-20T09:14:00.111Z,927.85
2018-07-20T09:15:31.680Z,927.80
2018-07-20T09:17:03.250Z,927.82
2018-07-20T09:18:34.821Z,927.77
2018-07-20T09:20:06.390Z,927.75
2018-07-20T09:21:38.212Z,927.83
2018-07-20T09:23:09.532Z,927.74
2018-07-20T09:24:41.101Z,927.71
2018-07-20T09:26:12.673Z,927.75
2018-07-20T09:27:44.342Z,927.79
2018-07-20T09:29:15.813Z,927.80
2018-07-20T09:30:47.383Z,927.76
2018-07-20T09:32:18.953Z,927.72
2018-07-20T09:33:50.524Z,927.76
2018-07-20T09:35:22.122Z,927.77
2018-07-20T09:36:53.665Z,927.78
2018-07-20T09:38:25.234Z,927.77
2018-07-20T09:39:56.904Z,927.72
2018-07-20T09:41:28.374Z,927.72
2018-07-20T09:42:59.948Z,927.74
2018-07-20T09:44:31.587Z,927.79
2018-07-20T09:46:03.191Z,927.80
2018-07-20T09:47:34.655Z,927.83
2018-07-20T09:49:06.277Z,927.73
2018-07-20T09:50:37.796Z,927.75
2018-07-20T09:52:09.616Z,927.76
2018-07-20T09:53:40.936Z,927.80
2018-07-20T09:55:12.507Z,927.79
2018-07-20T09:56:44.077Z,927.77
2018-07-20T09:59:47.243Z,927.80
2018-07-20T10:01:18.787Z,927.83
2018-07-20T10:02:50.357Z,927.80
2018-07-20T10:04:21.931Z,927.81
2018-07-20T10:05:53.599Z,927.83
2018-07-20T10:07:25.069Z,927.79
2018-07-20T10:08:56.670Z,927.85
2018-07-20T10:10:28.238Z,927.85
2018-07-20T10:11:59.935Z,927.85
2018-07-20T10:13:31.353Z,927.85
2018-07-20T10:15:03.464Z,927.86
2018-07-20T10:16:34.496Z,927.89
2018-07-20T10:19:38.050Z,927.96
2018-07-20T10:21:09.215Z,927.95
2018-07-20T10:22:40.785Z,927.96
2018-07-20T10:24:12.358Z,927.98
2018-07-20T10:25:44.076Z,927.99
2018-07-20T10:27:16.042Z,928.08
2018-07-20T10:28:47.380Z,928.00
2018-07-20T10:30:18.649Z,928.03
2018-07-20T10:31:50.223Z,928.01
2018-07-20T10:34:53.370Z,928.03
2018-07-20T10:36:24.944Z,928.08
2018-07-20T10:37:56.519Z,928.12
2018-07-20T10:39:28.295Z,928.15
2018-07-20T10:42:31.242Z,928.20
2018-07-20T10:44:02.916Z,928.17
2018-07-20T10:45:34.393Z,928.17
2018-07-20T10:47:05.966Z,928.20
2018-07-20T10:48:37.541Z,928.21
2018-07-20T10:50:09.117Z,928.21
2018-07-20T10:51:40.894Z,928.29
2018-07-20T10:53:12.571Z,928.33
2018-07-20T10:56:15.420Z,928.35
2018-07-20T10:57:47.199Z,928.37
2018-07-20T10:59:18.578Z,928.37
2018-07-20T11:00:50.149Z,928.38
2018-07-20T11:02:22.366Z,928.39
2018-07-20T11:03:53.303Z,928.43
2018-07-20T11:05:24.880Z,928.42
2018-07-20T11:06:56.457Z,928.38
2018-07-20T11:08:28.036Z,928.44
2018-07-20T11:09:59.615Z,928.46
2018-07-20T11:11:31.192Z,928.40
2018-07-20T11:13:02.768Z,928.41
2018-07-20T11:14:34.446Z,928.41
2018-07-20T11:16:05.924Z,928.44
2018-07-20T11:17:37.805Z,928.45
2018-07-20T11:19:09.081Z,928.42
2018-07-20T11:22:12.640Z,928.47
2018-07-20T11:23:43.814Z,928.46
2018-07-20T11:25:15.400Z,928.44
2018-07-20T11:26:46.970Z,928.49
2018-07-20T11:29:50.126Z,928.53
2018-07-20T11:32:53.282Z,928.53
2018-07-20T11:34:25.064Z,928.53
2018-07-20T11:37:28.319Z,928.66
2018-07-20T11:38:59.799Z,928.67
2018-07-20T11:40:31.725Z,928.71
2018-07-20T11:43:34.639Z,928.73
2018-07-20T11:45:05.911Z,928.74
2018-07-20T11:46:38.029Z,928.79
2018-07-20T11:48:09.070Z,928.82
2018-07-20T11:49:40.648Z,928.86
2018-07-20T11:51:12.228Z,928.90
2018-07-20T11:54:15.382Z,928.86
2018-07-20T11:55:47.146Z,928.88
2018-07-20T11:57:18.542Z,928.98
2018-07-20T12:00:23.289Z,928.94
2018-07-20T12:01:53.303Z,928.94
2018-07-20T12:03:26.997Z,929.01
2018-07-20T12:04:57.354Z,929.05
2018-07-20T12:06:28.059Z,929.10
2018-07-20T12:07:59.629Z,929.09
2018-07-20T12:09:31.251Z,929.07
2018-07-20T12:11:02.867Z,929.13
2018-07-20T12:12:34.543Z,929.09
2018-07-20T12:14:06.075Z,929.19
2018-07-20T12:15:37.496Z,929.06
2018-07-20T12:17:09.606Z,929.13
2018-07-20T12:18:40.866Z,929.08
2018-07-20T12:20:12.239Z,929.11
2018-07-20T12:23:15.399Z,929.15
2018-07-20T12:24:47.486Z,929.12
2018-07-20T12:26:18.865Z,929.14
2018-07-20T12:27:50.345Z,929.19
2018-07-20T12:29:21.722Z,929.16
2018-07-20T12:30:53.332Z,929.12
2018-07-20T12:35:28.148Z,929.12
2018-07-20T12:36:59.633Z,929.07
2018-07-20T12:38:31.234Z,929.17
2018-07-20T12:44:37.763Z,929.10
2018-07-20T12:46:09.953Z,928.91
2018-07-20T12:49:12.809Z,929.02
2018-07-20T12:50:44.264Z,929.04
2018-07-20T12:52:15.444Z,928.97
2018-07-20T12:53:47.128Z,929.00
2018-07-20T12:55:18.605Z,928.98
2018-07-20T12:56:50.222Z,928.95
2018-07-20T12:58:22.131Z,928.92
2018-07-20T12:59:53.349Z,928.91
2018-07-20T13:02:56.515Z,929.01
2018-07-20T13:04:28.674Z,928.92
2018-07-20T13:05:59.678Z,928.91
2018-07-20T13:07:31.391Z,928.95
2018-07-20T13:09:04.105Z,928.90
2018-07-20T13:12:06.089Z,928.90
2018-07-20T13:15:09.472Z,928.93
2018-07-20T13:16:40.750Z,928.99
2018-07-20T13:18:12.435Z,928.84
2018-07-20T13:19:44.227Z,928.94
2018-07-20T13:21:15.980Z,928.89
2018-07-20T13:22:47.607Z,928.88
2018-07-20T13:24:19.212Z,928.85
2018-07-20T13:25:50.501Z,928.84
2018-07-20T13:27:22.127Z,928.96
2018-07-20T13:30:25.594Z,928.98
2018-07-20T13:31:56.572Z,928.81
2018-07-20T13:33:28.357Z,928.87
2018-07-20T13:34:59.761Z,928.78
2018-07-20T13:39:35.423Z,928.71
2018-07-20T13:41:06.069Z,928.67
2018-07-20T13:45:41.119Z,928.70
2018-07-20T13:47:13.132Z,928.59
2018-07-20T13:48:44.286Z,928.58
2018-07-20T13:50:15.567Z,928.59
2018-07-20T13:51:47.469Z,928.63
2018-07-20T13:53:18.731Z,928.57
2018-07-20T13:54:50.314Z,928.52
2018-07-20T13:56:22.425Z,928.75
2018-07-20T13:57:55.430Z,928.48
2018-07-20T14:00:56.651Z,928.49
2018-07-20T14:04:00.135Z,928.41
2018-07-20T14:05:31.927Z,928.69
2018-07-20T14:11:37.905Z,928.41
2018-07-20T14:14:40.941Z,928.48
2018-07-20T14:16:12.682Z,928.45
2018-07-20T14:19:15.745Z,928.37
2018-07-20T14:20:47.228Z,928.32
2018-07-20T14:23:50.394Z,928.42
2018-07-20T14:25:21.976Z,928.36
2018-07-20T14:26:53.610Z,928.31
2018-07-20T14:28:26.477Z,928.21
2018-07-20T14:29:56.728Z,928.30
2018-07-20T14:31:28.591Z,928.41
2018-07-20T14:33:00.200Z,928.22
2018-07-20T14:34:31.479Z,928.40
2018-07-20T14:36:03.066Z,928.26
2018-07-20T14:40:38.220Z,928.15
2018-07-20T14:42:09.399Z,928.13
2018-07-20T14:43:40.980Z,928.15
2018-07-20T14:45:12.766Z,928.19
2018-07-20T14:48:15.733Z,928.19
2018-07-20T14:49:48.024Z,928.15
2018-07-20T14:51:18.912Z,928.06
2018-07-20T14:52:50.787Z,927.89
2018-07-20T14:54:22.230Z,927.86
2018-07-20T14:55:53.845Z,927.71
2018-07-20T14:58:57.055Z,927.86
2018-07-20T15:00:28.503Z,927.76
2018-07-20T15:02:00.061Z,927.75
2018-07-20T15:03:31.641Z,927.67
2018-07-20T15:05:03.227Z,927.69
2018-07-20T15:06:34.810Z,927.65
2018-07-20T15:08:06.393Z,927.68
2018-07-20T15:09:38.180Z,927.55
2018-07-20T15:11:10.138Z,927.54
2018-07-20T15:12:41.450Z,927.53
2018-07-20T15:14:12.660Z,927.57
2018-07-20T15:15:44.450Z,927.59
2018-07-20T15:17:15.830Z,927.35
2018-07-20T15:24:54.904Z,927.24
2018-07-20T15:26:25.658Z,927.24
2018-07-20T15:27:57.223Z,927.18
2018-07-20T15:29:29.465Z,927.19
2018-07-20T15:31:00.291Z,927.24
2018-07-20T15:34:03.462Z,927.20
2018-07-20T15:35:34.841Z,927.11
2018-07-20T15:37:06.628Z,927.26
2018-07-20T15:38:38.214Z,927.14
2018-07-20T15:40:09.842Z,927.03
2018-07-20T15:41:41.179Z,927.02
2018-07-20T15:43:12.865Z,926.98
2018-07-20T15:44:44.349Z,927.12
2018-07-20T15:46:16.097Z,927.03
2018-07-20T15:47:47.518Z,927.02
2018-07-20T15:49:20.037Z,926.83
2018-07-20T15:50:50.692Z,926.84
2018-07-20T15:55:25.464Z,926.62
2018-07-20T15:56:57.559Z,926.75
2018-07-20T16:00:00.518Z,926.69
2018-07-20T16:01:31.880Z,926.79
2018-07-20T16:04:36.085Z,926.71
2018-07-20T16:07:38.197Z,926.65
2018-07-20T16:09:09.791Z,926.64
2018-07-20T16:10:41.287Z,926.68
2018-07-20T16:12:13.178Z,926.42
2018-07-20T16:13:44.558Z,926.59
2018-07-20T16:15:16.537Z,926.54
2018-07-20T16:18:20.122Z,926.55
2018-07-20T16:19:50.989Z,926.53
2018-07-20T16:22:54.272Z,926.54
2018-07-20T16:24:25.608Z,926.56
2018-07-20T16:25:57.332Z,926.52
2018-07-20T16:27:28.753Z,926.52
2018-07-20T16:29:00.346Z,926.48
2018-07-20T16:30:32.137Z,926.49
2018-07-20T16:32:03.539Z,926.44
2018-07-20T16:33:35.384Z,926.45
2018-07-20T16:35:06.678Z,926.39
2018-07-20T16:36:38.266Z,926.47
2018-07-20T16:38:10.059Z,926.35
2018-07-20T16:39:41.732Z,926.49
2018-07-20T16:41:13.540Z,926.48
2018-07-20T16:42:44.966Z,926.42
2018-07-20T16:44:16.190Z,926.48
2018-07-20T16:45:47.780Z,926.41
2018-07-20T16:48:50.912Z,926.38
2018-07-20T16:50:22.499Z,926.40
2018-07-20T16:51:54.086Z,926.37
2018-07-20T16:54:57.265Z,926.38
2018-07-20T16:56:29.593Z,926.35
2018-07-20T17:01:03.591Z,926.33
2018-07-20T17:02:35.176Z,926.38
2018-07-20T17:05:44.621Z,926.34
2018-07-20T17:07:10.237Z,926.31
2018-07-20T17:08:41.830Z,926.30
2018-07-20T17:10:13.607Z,926.32
2018-07-20T17:11:45.220Z,926.29
2018-07-20T17:13:16.275Z,926.22
2018-07-20T17:14:48.160Z,926.34
2018-07-20T17:16:19.442Z,926.30
2018-07-20T17:17:51.555Z,926.32
2018-07-20T17:19:22.688Z,926.36
2018-07-20T17:20:54.196Z,926.37
2018-07-20T17:22:25.983Z,926.36
2018-07-20T17:23:57.369Z,926.19
2018-07-20T17:25:29.153Z,926.19
2018-07-20T17:27:00.535Z,926.38
2018-07-20T17:28:32.120Z,926.24
2018-07-20T17:30:03.705Z,926.29
2018-07-20T17:31:35.289Z,926.27
2018-07-20T17:33:07.176Z,926.28
2018-07-20T17:34:38.458Z,926.25
2018-07-20T17:39:13.211Z,926.23
2018-07-20T17:40:46.213Z,926.19
2018-07-20T17:42:16.380Z,926.12
2018-07-20T17:43:48.110Z,926.17
2018-07-20T17:45:20.080Z,926.18
2018-07-20T17:46:51.436Z,926.16
2018-07-20T17:48:22.787Z,926.26
2018-07-20T17:49:54.301Z,926.20
2018-07-20T17:52:57.646Z,926.14
2018-07-20T17:54:29.662Z,926.22
2018-07-20T17:56:00.691Z,926.22
2018-07-20T17:57:32.224Z,926.17
2018-07-20T17:59:03.966Z,926.16
2018-07-20T18:02:06.977Z,926.22
2018-07-20T18:03:38.574Z,926.14
2018-07-20T18:05:10.166Z,926.15
2018-07-20T18:06:41.736Z,926.24
2018-07-20T18:08:13.314Z,926.16
2018-07-20T18:09:45.202Z,926.22
2018-07-20T18:11:16.584Z,926.19
2018-07-20T18:12:48.066Z,926.20
2018-07-20T18:14:20.786Z,926.17
2018-07-20T18:15:51.337Z,926.15
2018-07-20T18:17:22.834Z,926.18
2018-07-20T18:18:54.401Z,926.21
2018-07-20T18:21:57.568Z,926.18
2018-07-20T18:23:29.153Z,926.20
2018-07-20T18:25:00.754Z,926.17
2018-07-20T18:26:32.319Z,926.25
2018-07-20T18:29:36.116Z,926.20
2018-07-20T18:31:07.074Z,926.23
2018-07-20T18:34:10.310Z,926.31
2018-07-20T18:35:41.821Z,926.33
2018-07-20T18:37:13.424Z,926.33
2018-07-20T18:38:44.987Z,926.32
2018-07-20T18:41:48.154Z,926.38
2018-07-20T18:43:19.740Z,926.42
2018-07-20T18:44:52.234Z,926.38
2018-07-20T18:46:22.904Z,926.38
2018-07-20T18:47:54.589Z,926.39
2018-07-20T18:49:27.106Z,926.43
2018-07-20T18:50:57.654Z,926.37
2018-07-20T18:52:29.673Z,926.54
2018-07-20T18:54:01.026Z,926.43
2018-07-20T18:55:32.428Z,926.46
2018-07-20T18:57:03.986Z,926.45
2018-07-20T18:58:35.569Z,926.51
2018-07-20T19:00:07.157Z,926.46
2018-07-20T19:01:38.752Z,926.46
2018-07-20T19:03:10.620Z,926.48
2018-07-20T19:04:41.900Z,926.50
2018-07-20T19:06:13.584Z,926.53
2018-07-20T19:07:45.131Z,926.45
2018-07-20T19:09:16.683Z,926.47
2018-07-20T19:10:48.248Z,926.47
2018-07-20T19:12:20.016Z,926.44
2018-07-20T19:13:51.395Z,926.44
2018-07-20T19:15:22.976Z,926.47
2018-07-20T19:16:54.562Z,926.47
2018-07-20T19:18:26.141Z,926.57
2018-07-20T19:19:57.723Z,926.45
2018-07-20T19:21:29.304Z,926.47
2018-07-20T19:23:00.888Z,926.56
2018-07-20T19:24:32.568Z,926.51
2018-07-20T19:26:04.050Z,926.57
2018-07-20T19:27:35.635Z,926.51
2018-07-20T19:29:07.214Z,926.51
2018-07-20T19:30:38.797Z,926.49
2018-07-20T19:32:10.377Z,926.50
2018-07-20T19:33:41.984Z,926.54
2018-07-20T19:35:13.540Z,926.56
2018-07-20T19:36:45.122Z,926.58
2018-07-20T19:38:16.705Z,926.68
2018-07-20T19:39:48.304Z,926.58
2018-07-20T19:41:19.868Z,926.58
2018-07-20T19:42:51.549Z,926.64
2018-07-20T19:44:23.029Z,926.51
2018-07-20T19:45:54.645Z,926.58
2018-07-20T19:47:26.190Z,926.59
2018-07-20T19:48:57.836Z,926.62
2018-07-20T19:50:29.355Z,926.57
2018-07-20T19:52:00.935Z,926.59
2018-07-20T19:53:32.522Z,926.56
2018-07-20T19:55:04.095Z,926.57
2018-07-20T19:58:07.258Z,926.63
2018-07-20T19:59:38.838Z,926.59
2018-07-20T20:01:10.872Z,926.59
2018-07-20T20:02:41.999Z,926.58
2018-07-20T20:04:13.610Z,926.60
2018-07-20T20:05:45.162Z,926.61
2018-07-20T20:07:16.987Z,926.62
2018-07-20T20:08:48.322Z,926.60
2018-07-20T20:10:19.901Z,926.61
2018-07-20T20:11:51.481Z,926.61
2018-07-20T20:13:23.061Z,926.67
2018-07-20T20:14:54.641Z,926.62
2018-07-20T20:16:26.222Z,926.68
2018-07-20T20:17:57.802Z,926.62
2018-07-20T20:19:30.012Z,926.62
2018-07-20T20:21:00.960Z,926.60
2018-07-20T20:22:32.540Z,926.62
2018-07-20T20:24:04.119Z,926.64
2018-07-20T20:25:35.698Z,926.64
2018-07-20T20:27:07.277Z,926.64
2018-07-20T20:28:38.856Z,926.63
2018-07-20T20:30:10.436Z,926.65
2018-07-20T20:31:42.014Z,926.66
2018-07-20T20:33:13.795Z,926.69
2018-07-20T20:34:45.171Z,926.68
2018-07-20T20:36:16.749Z,926.67
2018-07-20T20:37:48.734Z,926.64
2018-07-20T20:40:51.484Z,926.67
2018-07-20T20:42:23.062Z,926.67
2018-07-20T20:43:54.665Z,926.66
2018-07-20T20:45:26.218Z,926.66
2018-07-20T20:46:57.800Z,926.73